Time;durP1;ratioP1;P1;durP2;ratioP2;P2;SDS_P1;SDS_P2;PMS_P1;PMS_P2;Temp;Humidity;BMP_temperature;BMP_pressure;BME280_temperature;BME280_humidity;BME280_pressure;Samples;Min_cycle;Max_cycle;Signal;HPM_P1;HPM_P2
2021/03/22 00:00:08;;;;;;;36.40;24.15;;;6.10;92.10;;;;;;5032175;28;20048;-72
2021/03/22 00:02:34;;;;;;;41.70;24.40;;;6.10;92.30;;;;;;5031840;28;20049;-74
2021/03/22 00:04:59;;;;;;;36.13;23.88;;;6.10;92.20;;;;;;5031519;28;20455;-72
2021/03/22 00:07:25;;;;;;;35.95;22.38;;;6.10;92.30;;;;;;5028101;28;20117;-72
2021/03/22 00:09:50;;;;;;;39.22;24.58;;;6.10;92.40;;;;;;5029154;28;20670;-72
2021/03/22 00:12:16;;;;;;;41.38;25.38;;;6.10;92.40;;;;;;5024083;28;20480;-72
2021/03/22 00:14:42;;;;;;;41.63;25.08;;;6.10;92.50;;;;;;5022071;28;20025;-72
2021/03/22 00:17:07;;;;;;;38.33;24.10;;;6.10;92.40;;;;;;5027469;28;20049;-72
2021/03/22 00:19:33;;;;;;;43.20;25.15;;;6.00;92.70;;;;;;5031846;28;20040;-74
2021/03/22 00:21:59;;;;;;;40.05;25.75;;;6.00;92.50;;;;;;5027973;28;20152;-72
2021/03/22 00:24:24;;;;;;;38.97;24.77;;;6.00;92.60;;;;;;5019915;28;20496;-72
2021/03/22 00:26:50;;;;;;;41.70;26.05;;;6.00;92.70;;;;;;5031165;28;20022;-72
2021/03/22 00:29:16;;;;;;;44.85;25.42;;;6.00;92.70;;;;;;5030612;28;20503;-74
2021/03/22 00:31:41;;;;;;;42.13;25.75;;;6.00;92.60;;;;;;5031780;28;20080;-71
2021/03/22 00:34:07;;;;;;;44.42;25.25;;;6.00;92.60;;;;;;5031838;28;20018;-71
2021/03/22 00:36:32;;;;;;;41.70;26.05;;;6.00;92.60;;;;;;5034418;28;20443;-71
2021/03/22 00:38:58;;;;;;;42.47;26.45;;;6.00;92.50;;;;;;5035274;28;20075;-72
2021/03/22 00:41:24;;;;;;;46.47;25.98;;;6.00;92.60;;;;;;5035395;28;20036;-73
2021/03/22 00:43:50;;;;;;;41.63;25.90;;;6.00;92.60;;;;;;5023147;28;20030;-74
2021/03/22 00:46:16;;;;;;;43.75;26.25;;;5.90;92.60;;;;;;5016758;28;20042;-72
2021/03/22 00:48:42;;;;;;;38.47;26.10;;;5.90;92.70;;;;;;5033966;28;20083;-74
2021/03/22 00:51:08;;;;;;;44.22;26.85;;;5.80;92.60;;;;;;5035175;28;20030;-73
2021/03/22 00:53:34;;;;;;;44.33;27.02;;;5.80;92.70;;;;;;5025856;28;20037;-72
2021/03/22 00:56:00;;;;;;;42.67;26.50;;;5.70;92.80;;;;;;5030443;28;20025;-74
2021/03/22 00:58:27;;;;;;;40.85;26.67;;;5.70;92.80;;;;;;5034784;28;20442;-74
2021/03/22 01:00:55;;;;;;;40.17;26.25;;;5.70;92.80;;;;;;5035198;28;20029;-72
2021/03/22 01:03:27;;;;;;;43.17;26.70;;;5.70;92.90;;;;;;5034048;28;20033;-74
2021/03/22 01:05:53;;;;;;;43.23;26.70;;;5.60;92.90;;;;;;5031970;28;20018;-74
2021/03/22 01:08:21;;;;;;;43.53;26.58;;;5.50;92.90;;;;;;5033075;28;20124;-74
2021/03/22 01:10:48;;;;;;;42.70;26.77;;;5.50;93.00;;;;;;5029850;28;20393;-74
2021/03/22 01:13:20;;;;;;;53.20;27.45;;;5.50;93.10;;;;;;5020258;28;20021;-72
2021/03/22 01:15:46;;;;;;;43.20;27.30;;;5.50;93.10;;;;;;5021441;28;20037;-72
2021/03/22 01:18:14;;;;;;;46.72;28.02;;;5.40;93.10;;;;;;5032779;28;20102;-72
2021/03/22 01:20:47;;;;;;;44.42;27.77;;;5.40;93.20;;;;;;5032097;28;20029;-72
2021/03/22 01:23:13;;;;;;;43.72;27.45;;;5.40;93.20;;;;;;5019145;28;20113;-74
2021/03/22 01:25:39;;;;;;;51.45;29.10;;;5.40;93.30;;;;;;5033314;28;20040;-74
2021/03/22 01:28:08;;;;;;;47.97;28.20;;;5.30;93.30;;;;;;5034126;28;20108;-72
2021/03/22 01:30:41;;;;;;;48.45;29.95;;;5.20;93.30;;;;;;5034406;28;20036;-72
2021/03/22 01:33:12;;;;;;;49.28;29.10;;;5.20;93.40;;;;;;5033956;28;20014;-73
2021/03/22 01:35:38;;;;;;;52.67;29.42;;;5.20;93.50;;;;;;5034125;28;20197;-72
2021/03/22 01:38:05;;;;;;;51.85;29.48;;;5.10;93.50;;;;;;5033574;28;20539;-73
2021/03/22 01:40:39;;;;;;;50.13;29.85;;;5.10;93.60;;;;;;5033066;28;20037;-72
2021/03/22 01:43:05;;;;;;;46.17;28.45;;;5.10;93.70;;;;;;5034216;28;20403;-73
2021/03/22 01:45:31;;;;;;;52.97;29.20;;;5.00;93.60;;;;;;5019053;28;20050;-72
2021/03/22 01:47:56;;;;;;;57.25;30.10;;;5.00;93.70;;;;;;5026931;28;20033;-72
2021/03/22 01:50:28;;;;;;;50.75;29.65;;;5.00;93.70;;;;;;5034170;28;20029;-74
2021/03/22 01:52:56;;;;;;;51.45;30.00;;;5.00;93.70;;;;;;5025570;28;20014;-74
2021/03/22 01:55:23;;;;;;;56.58;31.30;;;4.90;93.70;;;;;;5029175;28;20517;-72
2021/03/22 01:57:49;;;;;;;58.45;32.22;;;4.90;93.80;;;;;;5033514;28;20026;-74
2021/03/22 02:00:28;;;;;;;52.55;31.27;;;4.90;93.80;;;;;;5034008;28;20031;-72
2021/03/22 02:03:09;;;;;;;52.35;29.55;;;4.90;93.70;;;;;;5029847;28;20121;-72
2021/03/22 02:05:36;;;;;;;53.70;30.27;;;4.80;93.80;;;;;;5027313;28;20025;-72
2021/03/22 02:08:09;;;;;;;56.03;31.75;;;4.80;93.90;;;;;;5033229;28;20025;-72
2021/03/22 02:10:37;;;;;;;50.80;31.50;;;4.70;93.80;;;;;;5031442;28;20543;-72
2021/03/22 02:13:04;;;;;;;55.40;31.52;;;4.70;93.90;;;;;;5029968;28;20067;-73
2021/03/22 02:15:30;;;;;;;52.35;31.88;;;4.70;94.00;;;;;;5021642;28;20049;-71
2021/03/22 02:18:08;;;;;;;58.90;32.10;;;4.60;93.90;;;;;;5033047;28;20025;-74
2021/03/22 02:21:01;;;;;;;54.67;30.92;;;4.60;94.00;;;;;;5027109;28;20029;-74
2021/03/22 02:23:45;;;;;;;55.20;32.47;;;4.50;94.00;;;;;;5012836;28;20492;-74
2021/03/22 02:26:48;;;;;;;53.50;31.27;;;4.60;94.20;;;;;;5033130;28;20116;-73
2021/03/22 02:29:38;;;;;;;60.17;31.87;;;4.60;94.20;;;;;;5033262;28;20037;-71
2021/03/22 02:32:53;;;;;;;51.22;31.25;;;4.60;94.20;;;;;;5031691;28;20330;-74
2021/03/22 02:35:25;;;;;;;55.55;31.45;;;4.50;94.20;;;;;;4987260;28;20041;-73
2021/03/22 02:38:08;;;;;;;52.72;32.03;;;4.50;94.20;;;;;;5032976;28;20025;-71
2021/03/22 02:40:40;;;;;;;55.58;31.23;;;4.50;94.20;;;;;;5033219;28;20036;-73
2021/03/22 02:43:06;;;;;;;61.47;33.17;;;4.50;94.30;;;;;;5033355;28;20025;-72
2021/03/22 02:45:38;;;;;;;56.72;31.70;;;4.50;94.30;;;;;;5018646;28;20438;-74
2021/03/22 02:48:05;;;;;;;52.22;32.42;;;4.50;94.30;;;;;;5025085;28;20441;-71
2021/03/22 02:50:35;;;;;;;63.92;33.38;;;4.50;94.30;;;;;;5033096;28;20017;-71
2021/03/22 02:53:09;;;;;;;57.53;32.00;;;4.40;94.30;;;;;;5022617;28;20022;-72
2021/03/22 02:55:44;;;;;;;58.00;31.48;;;4.40;94.30;;;;;;5027548;28;20024;-71
2021/03/22 02:58:13;;;;;;;58.53;32.97;;;4.40;94.30;;;;;;5032212;28;20048;-74
2021/03/22 03:01:21;;;;;;;57.75;31.48;;;4.30;94.30;;;;;;5032942;28;20017;-71
2021/03/22 03:03:50;;;;;;;61.20;31.52;;;4.30;94.30;;;;;;4971672;28;20066;-71
2021/03/22 03:06:16;;;;;;;55.22;30.40;;;4.30;94.30;;;;;;4967647;28;20090;-73
2021/03/22 03:08:42;;;;;;;62.22;32.20;;;4.30;94.30;;;;;;4971343;28;20054;-72
2021/03/22 03:11:10;;;;;;;55.92;31.73;;;4.20;94.30;;;;;;4962277;28;20039;-71
2021/03/22 03:13:37;;;;;;;53.95;30.50;;;4.20;94.30;;;;;;4958854;28;20110;-73
2021/03/22 03:16:04;;;;;;;59.50;32.88;;;4.20;94.40;;;;;;4960189;28;20035;-72
2021/03/22 03:18:29;;;;;;;54.00;30.80;;;4.10;94.40;;;;;;4971297;28;20117;-71
2021/03/22 03:20:57;;;;;;;63.58;32.90;;;4.10;94.40;;;;;;4969319;28;20121;-74
2021/03/22 03:23:24;;;;;;;55.22;30.23;;;4.10;94.40;;;;;;4951155;28;20030;-74
2021/03/22 03:25:49;;;;;;;53.50;30.52;;;4.10;94.40;;;;;;4970994;28;20089;-71
2021/03/22 03:28:15;;;;;;;56.63;31.02;;;4.10;94.40;;;;;;4954817;28;20039;-71
2021/03/22 03:30:41;;;;;;;57.22;31.02;;;4.10;94.40;;;;;;4971422;28;20227;-71
2021/03/22 03:33:13;;;;;;;63.60;30.92;;;4.10;94.40;;;;;;4971247;28;20035;-73
2021/03/22 03:35:41;;;;;;;59.95;32.63;;;4.10;94.40;;;;;;5030724;28;20075;-74
2021/03/22 03:38:08;;;;;;;57.45;31.20;;;4.00;94.40;;;;;;5032326;28;20029;-72
2021/03/22 03:40:37;;;;;;;53.42;30.75;;;4.00;94.40;;;;;;5032332;28;20021;-71
2021/03/22 03:43:03;;;;;;;62.10;32.65;;;3.90;94.40;;;;;;5032236;28;20041;-72
2021/03/22 03:45:33;;;;;;;55.72;31.17;;;3.90;94.40;;;;;;5016611;28;20582;-73
2021/03/22 03:47:58;;;;;;;55.58;30.02;;;3.90;94.40;;;;;;5025549;28;20018;-71
2021/03/22 03:50:28;;;;;;;52.72;29.80;;;3.90;94.50;;;;;;5032238;28;20152;-71
2021/03/22 03:52:55;;;;;;;56.55;31.42;;;3.80;94.40;;;;;;5022124;28;20420;-72
2021/03/22 03:55:25;;;;;;;60.00;31.52;;;3.80;94.50;;;;;;5026801;28;20029;-73
2021/03/22 03:57:51;;;;;;;59.80;31.10;;;3.80;94.50;;;;;;5029379;28;20026;-71
2021/03/22 04:00:26;;;;;;;60.95;32.50;;;3.80;94.50;;;;;;5032235;28;20528;-74
2021/03/22 04:02:53;;;;;;;62.03;31.00;;;3.70;94.50;;;;;;5029758;28;20087;-71
2021/03/22 04:05:19;;;;;;;49.80;29.70;;;3.70;94.50;;;;;;5023814;28;20037;-72
2021/03/22 04:07:45;;;;;;;59.17;30.48;;;3.70;94.50;;;;;;5029153;28;20497;-72
2021/03/22 04:10:11;;;;;;;55.25;31.55;;;3.70;94.50;;;;;;5032610;28;20054;-74
2021/03/22 04:12:37;;;;;;;57.80;31.10;;;3.70;94.60;;;;;;5029823;28;20536;-74
2021/03/22 04:15:06;;;;;;;54.30;29.17;;;3.60;94.50;;;;;;5024522;28;20109;-73
2021/03/22 04:17:32;;;;;;;61.90;29.73;;;3.60;94.50;;;;;;5034548;28;20060;-72
2021/03/22 04:19:58;;;;;;;57.22;29.60;;;3.60;94.60;;;;;;5034599;28;20052;-73
2021/03/22 04:22:23;;;;;;;57.53;30.35;;;3.60;94.50;;;;;;5022154;28;20101;-71
2021/03/22 04:24:49;;;;;;;58.67;30.25;;;3.60;94.60;;;;;;5026633;28;20103;-73
2021/03/22 04:27:14;;;;;;;61.40;29.33;;;3.50;94.60;;;;;;5033435;28;20025;-73
2021/03/22 04:29:40;;;;;;;54.45;29.63;;;3.50;94.60;;;;;;5035759;28;20556;-71
2021/03/22 04:32:06;;;;;;;58.67;30.50;;;3.50;94.60;;;;;;5035244;28;20426;-73
2021/03/22 04:34:32;;;;;;;58.03;30.30;;;3.40;94.60;;;;;;5035660;28;20370;-72
2021/03/22 04:36:58;;;;;;;57.55;29.60;;;3.50;94.60;;;;;;5035381;28;20025;-73
2021/03/22 04:39:23;;;;;;;63.47;30.52;;;3.40;94.60;;;;;;5035466;28;20029;-71
2021/03/22 04:41:49;;;;;;;56.92;28.98;;;3.40;94.60;;;;;;5035139;28;20504;-71
2021/03/22 04:44:14;;;;;;;56.42;29.38;;;3.30;94.60;;;;;;5029406;28;20041;-71
2021/03/22 04:46:40;;;;;;;57.72;29.83;;;3.30;94.60;;;;;;5019779;28;20045;-71
2021/03/22 04:49:06;;;;;;;64.85;29.85;;;3.30;94.60;;;;;;5035482;28;20079;-73
2021/03/22 04:51:32;;;;;;;57.00;29.73;;;3.30;94.60;;;;;;5035172;28;20484;-73
2021/03/22 04:53:59;;;;;;;59.63;29.55;;;3.30;94.70;;;;;;5023503;28;20477;-71
2021/03/22 04:56:25;;;;;;;64.65;29.33;;;3.30;94.70;;;;;;5031174;28;20095;-74
2021/03/22 04:58:51;;;;;;;63.60;29.25;;;3.20;94.60;;;;;;5026936;28;20033;-71
2021/03/22 05:01:17;;;;;;;62.88;29.27;;;3.20;94.70;;;;;;5034957;28;20025;-71
2021/03/22 05:03:42;;;;;;;59.92;29.85;;;3.20;94.70;;;;;;5025996;28;20024;-72
2021/03/22 05:06:08;;;;;;;66.90;30.55;;;3.20;94.70;;;;;;5016752;28;20544;-73
2021/03/22 05:08:34;;;;;;;57.63;28.63;;;3.20;94.70;;;;;;5034546;28;20030;-73
2021/03/22 05:11:01;;;;;;;64.90;30.25;;;3.10;94.70;;;;;;5031666;28;20096;-71
2021/03/22 05:13:30;;;;;;;53.40;28.10;;;3.00;94.70;;;;;;5030603;28;20022;-73
2021/03/22 05:15:57;;;;;;;60.67;28.95;;;3.00;94.80;;;;;;5022695;28;20021;-72
2021/03/22 05:18:25;;;;;;;66.78;28.90;;;3.00;94.80;;;;;;5034381;28;20142;-73
2021/03/22 05:20:55;;;;;;;59.45;30.25;;;2.90;94.80;;;;;;5034679;28;20075;-73
2021/03/22 05:23:27;;;;;;;64.63;31.27;;;2.80;94.80;;;;;;5017040;28;20048;-71
2021/03/22 05:25:54;;;;;;;66.70;31.10;;;2.80;94.90;;;;;;5025943;28;20523;-73
2021/03/22 05:28:22;;;;;;;58.60;30.30;;;2.80;95.00;;;;;;5032694;28;20033;-73
2021/03/22 05:30:48;;;;;;;63.20;30.13;;;2.70;95.00;;;;;;5034474;28;20031;-73
2021/03/22 05:33:16;;;;;;;58.55;29.70;;;2.70;95.00;;;;;;5034516;28;20021;-71
2021/03/22 05:35:43;;;;;;;58.60;29.77;;;2.70;95.00;;;;;;5033468;28;20044;-71
2021/03/22 05:38:10;;;;;;;69.47;30.20;;;2.60;95.00;;;;;;5034294;28;20120;-71
2021/03/22 05:40:39;;;;;;;64.72;30.95;;;2.60;95.00;;;;;;5028064;28;20525;-73
2021/03/22 05:43:27;;;;;;;61.30;30.23;;;2.50;95.00;;;;;;5030476;28;20528;-73
2021/03/22 05:46:32;;;;;;;62.97;30.15;;;2.50;95.10;;;;;;5014868;28;20053;-73
2021/03/22 05:49:20;;;;;;;68.60;31.58;;;2.40;95.10;;;;;;5016645;28;20071;-71
2021/03/22 05:52:00;;;;;;;61.85;29.63;;;2.40;95.00;;;;;;5032474;28;20393;-71
2021/03/22 05:54:29;;;;;;;74.40;32.13;;;2.30;95.00;;;;;;5024553;28;20026;-73
2021/03/22 05:57:14;;;;;;;60.55;30.50;;;2.30;95.30;;;;;;5002121;28;20128;-71
2021/03/22 05:59:59;;;;;;;57.65;30.85;;;2.20;95.00;;;;;;5026073;28;20026;-73
2021/03/22 06:02:42;;;;;;;61.30;30.90;;;2.20;95.10;;;;;;5032337;28;20021;-71
2021/03/22 06:05:39;;;;;;;63.42;30.90;;;2.20;95.10;;;;;;5009864;28;20026;-71
2021/03/22 06:08:25;;;;;;;62.70;31.08;;;2.10;95.20;;;;;;5025697;28;20396;-73
2021/03/22 06:10:53;;;;;;;65.97;31.33;;;2.10;95.20;;;;;;5026149;28;20045;-73
2021/03/22 06:13:28;;;;;;;69.38;29.75;;;2.20;95.30;;;;;;5030467;28;20029;-71
2021/03/22 06:15:56;;;;;;;59.88;29.85;;;2.20;95.20;;;;;;5019656;28;20699;-71
2021/03/22 06:18:29;;;;;;;61.90;30.15;;;2.20;95.20;;;;;;5033305;28;20099;-71
2021/03/22 06:20:56;;;;;;;61.63;29.85;;;2.20;95.20;;;;;;5032902;28;20552;-71
2021/03/22 06:23:34;;;;;;;65.80;29.38;;;2.30;95.20;;;;;;5022437;28;20100;-73
2021/03/22 06:26:00;;;;;;;64.35;29.92;;;2.30;95.20;;;;;;5026421;28;20018;-71
2021/03/22 06:28:31;;;;;;;63.40;29.35;;;2.40;95.10;;;;;;5031416;28;20029;-73
2021/03/22 06:31:08;;;;;;;62.05;27.80;;;2.40;95.00;;;;;;5032988;28;20108;-73
2021/03/22 06:33:37;;;;;;;53.05;28.25;;;2.40;94.90;;;;;;5032752;28;20026;-71
2021/03/22 06:36:05;;;;;;;61.78;27.70;;;2.50;94.90;;;;;;5019075;28;20029;-71
2021/03/22 06:38:31;;;;;;;57.17;28.48;;;2.50;94.90;;;;;;5023174;28;20152;-71
2021/03/22 06:40:57;;;;;;;53.50;25.75;;;2.50;94.70;;;;;;5033064;28;20504;-71
2021/03/22 06:43:26;;;;;;;56.83;27.17;;;2.60;94.60;;;;;;5032542;28;20130;-71
2021/03/22 06:46:05;;;;;;;56.33;25.88;;;2.60;94.50;;;;;;5023034;28;20046;-71
2021/03/22 06:48:33;;;;;;;55.78;25.35;;;2.60;94.40;;;;;;5029716;28;20068;-74
2021/03/22 06:51:04;;;;;;;54.95;26.15;;;2.70;94.30;;;;;;5017333;28;20587;-71
2021/03/22 06:53:35;;;;;;;49.67;24.67;;;2.70;94.30;;;;;;5019821;28;20100;-70
2021/03/22 06:56:17;;;;;;;59.47;26.67;;;2.70;94.20;;;;;;5011898;28;20026;-70
2021/03/22 06:58:44;;;;;;;49.97;24.90;;;2.80;94.20;;;;;;5023414;28;20060;-71
2021/03/22 07:01:24;;;;;;;47.17;22.85;;;2.90;94.20;;;;;;5025125;28;20113;-71
2021/03/22 07:03:51;;;;;;;46.75;23.20;;;3.00;94.10;;;;;;5031922;28;20033;-71
2021/03/22 07:06:22;;;;;;;51.65;22.48;;;3.10;94.00;;;;;;5018573;28;20434;-72
2021/03/22 07:08:49;;;;;;;48.85;23.10;;;3.20;93.80;;;;;;5019391;28;20113;-72
2021/03/22 07:11:24;;;;;;;44.60;22.70;;;3.30;93.80;;;;;;5009166;28;20045;-74
2021/03/22 07:13:54;;;;;;;54.13;24.85;;;3.40;93.70;;;;;;5019327;28;20492;-74
2021/03/22 07:16:23;;;;;;;46.83;22.10;;;3.60;93.80;;;;;;5012119;28;20030;-72
2021/03/22 07:19:18;;;;;;;53.42;21.05;;;3.70;93.50;;;;;;5026655;28;20061;-74
2021/03/22 07:21:49;;;;;;;47.92;21.20;;;3.90;93.00;;;;;;5012836;28;20497;-72
2021/03/22 07:24:23;;;;;;;37.53;19.95;;;4.00;92.90;;;;;;5010336;28;20658;-71
2021/03/22 07:27:05;;;;;;;37.03;18.52;;;4.10;92.60;;;;;;5013315;28;20046;-74
2021/03/22 07:29:47;;;;;;;36.65;18.23;;;4.20;92.30;;;;;;5015447;28;20485;-74
2021/03/22 07:32:34;;;;;;;33.78;17.63;;;4.30;92.10;;;;;;5014161;28;20136;-72
2021/03/22 07:35:38;;;;;;;37.80;17.35;;;4.50;91.90;;;;;;5014753;28;20525;-72
2021/03/22 07:38:38;;;;;;;23.65;14.13;;;5.00;91.10;;;;;;5011245;28;20037;-72
2021/03/22 07:41:19;;;;;;;24.23;12.70;;;8.00;80.80;;;;;;5011156;28;20034;-74
2021/03/22 07:44:12;;;;;;;22.17;11.98;;;10.20;69.40;;;;;;5007820;28;20042;-74
2021/03/22 07:47:13;;;;;;;24.35;12.80;;;10.00;64.80;;;;;;5008728;28;20069;-72
2021/03/22 07:49:49;;;;;;;27.83;13.20;;;7.90;74.10;;;;;;5014150;28;20030;-72
2021/03/22 07:52:37;;;;;;;27.80;14.05;;;6.80;79.70;;;;;;5007951;28;20144;-75
2021/03/22 07:55:06;;;;;;;31.10;14.30;;;6.40;83.00;;;;;;5012698;28;20045;-74
2021/03/22 07:57:40;;;;;;;25.98;13.68;;;6.10;83.80;;;;;;5023828;28;20534;-72
2021/03/22 08:00:14;;;;;;;31.35;14.20;;;6.10;84.30;;;;;;5023291;28;20021;-72
2021/03/22 08:03:00;;;;;;;25.80;13.60;;;6.10;84.80;;;;;;5023825;28;20036;-72
2021/03/22 08:05:26;;;;;;;26.25;12.80;;;6.40;83.60;;;;;;5008463;28;20030;-73
2021/03/22 08:08:35;;;;;;;27.30;11.32;;;7.20;81.20;;;;;;5015772;28;20045;-73
2021/03/22 08:11:19;;;;;;;21.42;10.13;;;10.30;69.40;;;;;;4916286;29;20058;-73
2021/03/22 08:14:14;;;;;;;18.20;9.85;;;12.80;57.60;;;;;;4917995;29;20495;-73
2021/03/22 08:16:58;;;;;;;18.17;8.98;;;14.00;53.40;;;;;;4980988;28;20042;-73
2021/03/22 08:19:42;;;;;;;19.73;9.27;;;14.50;50.60;;;;;;5018756;28;20046;-73
2021/03/22 08:22:22;;;;;;;19.48;8.85;;;14.40;50.90;;;;;;5021120;28;20037;-73
2021/03/22 08:25:16;;;;;;;17.42;8.38;;;14.80;50.10;;;;;;5020190;28;20108;-73
2021/03/22 08:28:14;;;;;;;19.42;7.75;;;15.00;48.90;;;;;;5012920;28;20029;-77
2021/03/22 08:31:10;;;;;;;14.63;8.35;;;15.10;49.00;;;;;;5011730;28;20069;-76
2021/03/22 08:33:39;;;;;;;17.98;8.75;;;13.50;52.40;;;;;;5013484;28;20028;-75
2021/03/22 08:36:21;;;;;;;19.30;9.13;;;11.40;59.70;;;;;;5017170;28;20038;-73
2021/03/22 08:38:55;;;;;;;18.70;9.02;;;11.90;60.10;;;;;;5015095;28;20081;-76
2021/03/22 08:41:33;;;;;;;19.77;8.35;;;13.50;55.10;;;;;;5012273;28;20104;-73
2021/03/22 08:44:22;;;;;;;15.45;8.18;;;14.20;51.00;;;;;;5012607;28;20030;-75
2021/03/22 08:46:52;;;;;;;19.00;8.50;;;14.70;49.60;;;;;;5018500;28;20467;-75
2021/03/22 08:49:25;;;;;;;18.95;8.82;;;14.90;49.00;;;;;;5002645;28;20165;-74
2021/03/22 08:51:53;;;;;;;16.70;8.02;;;15.50;50.00;;;;;;5016973;28;20018;-74
2021/03/22 08:54:30;;;;;;;18.77;7.82;;;15.30;47.70;;;;;;5015333;28;20562;-73
2021/03/22 08:57:14;;;;;;;19.95;8.20;;;15.20;47.80;;;;;;5012817;28;20392;-74
2021/03/22 08:59:40;;;;;;;17.45;8.60;;;15.30;48.40;;;;;;5020523;28;20108;-76
2021/03/22 09:02:30;;;;;;;19.25;8.18;;;16.00;47.80;;;;;;5017054;28;20093;-73
2021/03/22 09:04:56;;;;;;;16.48;8.50;;;16.00;46.20;;;;;;5009511;28;20039;-73
2021/03/22 09:07:27;;;;;;;14.63;7.97;;;16.60;45.10;;;;;;5031044;28;20400;-73
2021/03/22 09:10:13;;;;;;;21.00;7.63;;;16.50;44.40;;;;;;5023993;28;20117;-77
2021/03/22 09:12:44;;;;;;;21.52;8.13;;;16.40;44.50;;;;;;5027908;28;20025;-76
2021/03/22 09:15:13;;;;;;;18.33;7.50;;;16.60;46.30;;;;;;5019301;28;20030;-73
2021/03/22 09:17:47;;;;;;;18.10;7.50;;;17.00;44.40;;;;;;5023734;28;20704;-77
2021/03/22 09:20:16;;;;;;;17.15;7.22;;;17.20;43.30;;;;;;5026195;28;20033;-76
2021/03/22 09:22:45;;;;;;;16.92;7.43;;;16.70;42.40;;;;;;5019982;28;20438;-77
2021/03/22 09:25:13;;;;;;;19.90;8.07;;;17.00;43.70;;;;;;5031359;28;20033;-77
2021/03/22 09:27:39;;;;;;;20.77;7.90;;;17.90;41.90;;;;;;5025037;28;20038;-77
2021/03/22 09:30:08;;;;;;;17.92;8.25;;;18.80;40.10;;;;;;5031811;28;20169;-74
2021/03/22 09:32:36;;;;;;;23.25;8.50;;;19.50;40.30;;;;;;5018669;28;20025;-73
2021/03/22 09:35:14;;;;;;;16.23;7.95;;;20.10;38.60;;;;;;5017302;28;20060;-74
2021/03/22 09:37:51;;;;;;;18.63;8.40;;;19.30;38.60;;;;;;5023759;28;20064;-77
2021/03/22 09:40:22;;;;;;;34.22;12.27;;;18.60;39.80;;;;;;5012314;28;20108;-75
2021/03/22 09:43:03;;;;;;;31.55;10.88;;;19.20;39.40;;;;;;5021824;28;20025;-74
2021/03/22 09:45:30;;;;;;;21.92;8.40;;;19.40;38.60;;;;;;5013238;28;20062;-75
2021/03/22 09:48:14;;;;;;;25.58;8.80;;;19.60;38.00;;;;;;5022890;28;20109;-74
2021/03/22 09:50:40;;;;;;;19.58;8.30;;;20.50;35.90;;;;;;5011743;28;20080;-76
2021/03/22 09:53:29;;;;;;;17.88;8.65;;;19.80;36.20;;;;;;5014581;28;20021;-75
2021/03/22 09:56:09;;;;;;;22.90;8.38;;;20.10;35.80;;;;;;5009240;28;20501;-74
2021/03/22 09:58:45;;;;;;;21.45;7.97;;;19.60;40.50;;;;;;5016007;28;20038;-75
2021/03/22 10:01:30;;;;;;;21.77;8.23;;;19.40;37.70;;;;;;5022967;28;20037;-74
2021/03/22 10:04:20;;;;;;;26.27;8.13;;;18.00;39.80;;;;;;5012561;28;20049;-77
2021/03/22 10:07:23;;;;;;;17.70;7.80;;;19.40;40.70;;;;;;5016989;28;20056;-74
2021/03/22 10:09:54;;;;;;;;;;;19.40;36.90;;;;;;5014226;28;20099;-74
2021/03/22 10:12:26;;;;;;;21.67;8.13;;;19.00;37.70;;;;;;5017669;28;19922;-75
2021/03/22 10:15:33;;;;;;;21.55;8.40;;;18.40;38.70;;;;;;5013850;28;20021;-77
2021/03/22 10:18:15;;;;;;;17.30;8.18;;;16.70;41.10;;;;;;4958269;28;20129;-77
2021/03/22 10:20:46;;;;;;;25.98;8.65;;;15.60;44.20;;;;;;4964084;28;20398;-74
2021/03/22 10:23:29;;;;;;;22.27;8.77;;;15.10;47.60;;;;;;4952538;28;20039;-74
2021/03/22 10:26:08;;;;;;;20.02;7.60;;;14.70;47.20;;;;;;4954976;28;20036;-74
2021/03/22 10:28:34;;;;;;;21.98;8.75;;;14.30;49.00;;;;;;4962779;28;20042;-76
2021/03/22 10:31:10;;;;;;;23.23;7.75;;;13.90;49.90;;;;;;4959262;28;20090;-76
2021/03/22 10:33:36;;;;;;;16.15;7.35;;;14.10;50.70;;;;;;4959860;28;20431;-74
2021/03/22 10:36:03;;;;;;;22.02;7.72;;;13.80;49.30;;;;;;4963212;28;20023;-73
2021/03/22 10:38:32;;;;;;;25.55;8.55;;;14.00;52.30;;;;;;4954537;28;20047;-74
2021/03/22 10:40:59;;;;;;;23.77;8.75;;;14.30;50.90;;;;;;4960027;28;20067;-76
2021/03/22 10:43:30;;;;;;;19.80;8.25;;;15.00;50.20;;;;;;4967378;28;20042;-77
2021/03/22 10:45:59;;;;;;;34.40;9.13;;;14.30;50.30;;;;;;4956804;28;20050;-74
2021/03/22 10:48:32;;;;;;;25.13;9.43;;;14.40;51.70;;;;;;4951152;28;20114;-74
2021/03/22 10:51:17;;;;;;;23.33;9.20;;;14.30;52.50;;;;;;4959827;28;20067;-74
2021/03/22 10:54:00;;;;;;;23.17;8.95;;;13.90;51.60;;;;;;5011754;28;20148;-74
2021/03/22 10:56:35;;;;;;;31.83;8.82;;;13.70;52.30;;;;;;5016152;28;20051;-76
2021/03/22 10:59:17;;;;;;;29.70;9.90;;;14.40;54.00;;;;;;5008299;28;20041;-74
2021/03/22 11:01:43;;;;;;;20.98;9.65;;;14.00;50.70;;;;;;5016098;28;20571;-74
2021/03/22 11:04:16;;;;;;;22.55;10.10;;;13.40;53.10;;;;;;5010049;28;20121;-74
2021/03/22 11:06:45;;;;;;;24.52;10.32;;;13.30;53.40;;;;;;5026765;28;20021;-76
2021/03/22 11:09:26;;;;;;;20.33;9.98;;;13.30;52.80;;;;;;5016466;28;20034;-74
2021/03/22 11:11:53;;;;;;;30.90;10.73;;;13.50;53.00;;;;;;5016070;28;20392;-77
2021/03/22 11:14:23;;;;;;;25.25;10.23;;;13.40;53.50;;;;;;5007843;28;20096;-78
2021/03/22 11:16:49;;;;;;;28.42;9.88;;;13.90;55.30;;;;;;5015145;28;20022;-73
2021/03/22 11:19:21;;;;;;;26.10;9.38;;;13.90;51.90;;;;;;5014768;28;20033;-75
2021/03/22 11:21:47;;;;;;;24.00;9.93;;;13.60;52.70;;;;;;5013485;28;20030;-75
2021/03/22 11:24:19;;;;;;;27.67;9.93;;;13.60;54.10;;;;;;5015140;28;20034;-73
2021/03/22 11:26:58;;;;;;;23.92;9.93;;;13.80;52.10;;;;;;5020436;28;20101;-74
2021/03/22 11:29:24;;;;;;;22.20;9.30;;;13.60;53.80;;;;;;5014243;28;20097;-73
2021/03/22 11:32:03;;;;;;;26.95;9.68;;;13.70;52.20;;;;;;5012808;28;20116;-73
2021/03/22 11:34:41;;;;;;;25.08;10.10;;;14.10;52.10;;;;;;5010787;28;20512;-75
2021/03/22 11:37:15;;;;;;;23.73;9.75;;;14.00;51.00;;;;;;5012979;28;20028;-73
2021/03/22 11:39:42;;;;;;;24.30;9.93;;;13.90;52.90;;;;;;5017083;28;20029;-73
2021/03/22 11:42:28;;;;;;;23.60;9.68;;;14.00;50.80;;;;;;5017627;28;20149;-76
2021/03/22 11:44:54;;;;;;;23.88;9.70;;;13.90;50.90;;;;;;5012645;28;20520;-75
2021/03/22 11:47:40;;;;;;;23.52;10.00;;;13.60;52.40;;;;;;5017443;28;20057;-76
2021/03/22 11:50:21;;;;;;;28.20;10.27;;;13.50;53.90;;;;;;5019833;28;20026;-75
2021/03/22 11:52:46;;;;;;;21.67;9.45;;;13.60;52.70;;;;;;5016894;28;20065;-73
2021/03/22 11:55:31;;;;;;;25.58;9.80;;;13.50;53.50;;;;;;5007988;28;20092;-74
2021/03/22 11:57:57;;;;;;;24.17;9.75;;;13.50;53.90;;;;;;5016384;28;20057;-76
2021/03/22 12:00:27;;;;;;;28.35;9.43;;;13.50;53.10;;;;;;5011020;28;20068;-75
2021/03/22 12:02:52;;;;;;;25.95;9.55;;;13.50;54.30;;;;;;5013816;28;20501;-73
2021/03/22 12:05:30;;;;;;;23.83;10.05;;;13.90;52.20;;;;;;5008439;28;20049;-76
2021/03/22 12:07:56;;;;;;;19.75;8.75;;;13.70;52.30;;;;;;5010958;28;20044;-73
2021/03/22 12:10:30;;;;;;;22.40;10.57;;;13.90;51.00;;;;;;5010394;28;20034;-73
2021/03/22 12:12:57;;;;;;;22.20;10.02;;;14.00;50.90;;;;;;5008035;28;20072;-75
2021/03/22 12:15:26;;;;;;;22.50;9.73;;;13.70;52.20;;;;;;5007585;28;20022;-75
2021/03/22 12:17:58;;;;;;;18.98;9.00;;;13.80;52.40;;;;;;5003229;28;20026;-75
2021/03/22 12:20:28;;;;;;;28.02;10.10;;;13.70;51.10;;;;;;5012142;28;20033;-73
2021/03/22 12:22:54;;;;;;;18.85;9.38;;;14.00;53.20;;;;;;5018794;28;20042;-75
2021/03/22 12:25:27;;;;;;;23.83;9.80;;;14.20;50.30;;;;;;5013082;28;20033;-75
2021/03/22 12:27:53;;;;;;;32.60;10.27;;;14.50;51.00;;;;;;5013863;28;20034;-75
2021/03/22 12:30:21;;;;;;;25.48;10.40;;;14.50;53.10;;;;;;5013456;28;20104;-74
2021/03/22 12:32:47;;;;;;;21.10;9.38;;;14.70;51.60;;;;;;5025278;28;20018;-73
2021/03/22 12:35:26;;;;;;;18.27;9.23;;;14.80;51.80;;;;;;5019938;28;20044;-73
2021/03/22 12:37:52;;;;;;;21.23;9.38;;;14.60;51.50;;;;;;5020011;28;20076;-75
2021/03/22 12:40:19;;;;;;;22.92;10.63;;;14.30;50.70;;;;;;5030265;28;20022;-75
2021/03/22 12:42:46;;;;;;;25.23;10.55;;;14.40;53.00;;;;;;5015546;28;20026;-74
2021/03/22 12:45:31;;;;;;;26.05;9.95;;;14.70;52.00;;;;;;5018198;28;20823;-73
2021/03/22 12:47:57;;;;;;;27.25;9.57;;;14.80;49.30;;;;;;5016901;28;20018;-73
2021/03/22 12:50:30;;;;;;;17.77;9.52;;;14.50;51.90;;;;;;5014911;28;20026;-75
2021/03/22 12:52:56;;;;;;;;;;;14.60;53.00;;;;;;5016636;28;20507;-75
2021/03/22 12:55:24;;;;;;;31.75;10.48;;;14.70;51.70;;;;;;5019843;28;19916;-74
2021/03/22 12:57:50;;;;;;;27.33;10.88;;;14.50;51.10;;;;;;5021418;28;20496;-73
2021/03/22 13:00:19;;;;;;;29.38;10.70;;;14.50;52.80;;;;;;5006773;28;20096;-74
2021/03/22 13:02:46;;;;;;;24.33;10.02;;;14.60;52.70;;;;;;5027167;28;20047;-73